sensor_id;sensor_type;location;lat;lon;timestamp;P1;durP1;ratioP1;P2;durP2;ratioP2
9424;SDS011;17139;52.140;11.636;2023-09-08T00:00:46;5.05;;;4.65;;
9424;SDS011;17139;52.140;11.636;2023-09-08T00:03:14;4.55;;;4.13;;
9424;SDS011;17139;52.140;11.636;2023-09-08T00:05:41;4.43;;;4.13;;
9424;SDS011;17139;52.140;11.636;2023-09-08T00:08:08;4.72;;;4.43;;
9424;SDS011;17139;52.140;11.636;2023-09-08T00:10:37;4.20;;;3.97;;
9424;SDS011;17139;52.140;11.636;2023-09-08T00:13:04;4.30;;;4.07;;
9424;SDS011;17139;52.140;11.636;2023-09-08T00:15:33;4.63;;;4.28;;
9424;SDS011;17139;52.140;11.636;2023-09-08T00:18:01;4.35;;;4.15;;
9424;SDS011;17139;52.140;11.636;2023-09-08T00:20:28;4.32;;;4.13;;
9424;SDS011;17139;52.140;11.636;2023-09-08T00:22:55;4.38;;;4.15;;
9424;SDS011;17139;52.140;11.636;2023-09-08T00:25:22;4.47;;;4.28;;
9424;SDS011;17139;52.140;11.636;2023-09-08T00:27:50;6.70;;;4.40;;
9424;SDS011;17139;52.140;11.636;2023-09-08T00:30:17;4.57;;;4.28;;
9424;SDS011;17139;52.140;11.636;2023-09-08T00:32:44;4.68;;;4.40;;
9424;SDS011;17139;52.140;11.636;2023-09-08T00:35:11;4.40;;;4.20;;
9424;SDS011;17139;52.140;11.636;2023-09-08T00:37:39;4.90;;;4.55;;
9424;SDS011;17139;52.140;11.636;2023-09-08T00:40:06;4.70;;;4.47;;
9424;SDS011;17139;52.140;11.636;2023-09-08T00:42:34;4.78;;;4.57;;
9424;SDS011;17139;52.140;11.636;2023-09-08T00:45:03;5.03;;;4.72;;
9424;SDS011;17139;52.140;11.636;2023-09-08T00:47:30;5.38;;;5.00;;
9424;SDS011;17139;52.140;11.636;2023-09-08T00:49:57;5.63;;;5.13;;
9424;SDS011;17139;52.140;11.636;2023-09-08T00:52:25;4.63;;;4.32;;
9424;SDS011;17139;52.140;11.636;2023-09-08T00:54:56;5.47;;;5.18;;
9424;SDS011;17139;52.140;11.636;2023-09-08T00:57:23;5.18;;;4.95;;
9424;SDS011;17139;52.140;11.636;2023-09-08T00:59:50;5.20;;;4.78;;
9424;SDS011;17139;52.140;11.636;2023-09-08T01:02:18;5.03;;;4.72;;
9424;SDS011;17139;52.140;11.636;2023-09-08T01:04:46;5.57;;;5.13;;
9424;SDS011;17139;52.140;11.636;2023-09-08T01:07:13;5.65;;;5.18;;
9424;SDS011;17139;52.140;11.636;2023-09-08T01:09:42;4.78;;;4.57;;
9424;SDS011;17139;52.140;11.636;2023-09-08T01:12:09;6.00;;;5.60;;
9424;SDS011;17139;52.140;11.636;2023-09-08T01:14:37;4.93;;;4.63;;
9424;SDS011;17139;52.140;11.636;2023-09-08T01:17:04;5.95;;;5.43;;
9424;SDS011;17139;52.140;11.636;2023-09-08T01:19:32;5.30;;;5.00;;
9424;SDS011;17139;52.140;11.636;2023-09-08T01:22:16;5.22;;;4.93;;
9424;SDS011;17139;52.140;11.636;2023-09-08T01:25:08;5.22;;;4.82;;
9424;SDS011;17139;52.140;11.636;2023-09-08T01:27:43;7.80;;;5.10;;
9424;SDS011;17139;52.140;11.636;2023-09-08T01:30:13;6.07;;;5.68;;
9424;SDS011;17139;52.140;11.636;2023-09-08T01:32:41;5.95;;;5.55;;
9424;SDS011;17139;52.140;11.636;2023-09-08T01:35:10;5.13;;;4.72;;
9424;SDS011;17139;52.140;11.636;2023-09-08T01:37:39;6.47;;;6.03;;
9424;SDS011;17139;52.140;11.636;2023-09-08T01:40:09;5.82;;;5.13;;
9424;SDS011;17139;52.140;11.636;2023-09-08T01:42:36;5.57;;;5.22;;
9424;SDS011;17139;52.140;11.636;2023-09-08T01:45:04;5.60;;;5.18;;
9424;SDS011;17139;52.140;11.636;2023-09-08T01:47:32;5.50;;;5.10;;
9424;SDS011;17139;52.140;11.636;2023-09-08T01:49:59;5.85;;;5.35;;
9424;SDS011;17139;52.140;11.636;2023-09-08T01:52:26;5.78;;;5.20;;
9424;SDS011;17139;52.140;11.636;2023-09-08T01:54:53;5.28;;;4.97;;
9424;SDS011;17139;52.140;11.636;2023-09-08T01:57:22;6.05;;;5.65;;
9424;SDS011;17139;52.140;11.636;2023-09-08T01:59:49;5.60;;;5.30;;
9424;SDS011;17139;52.140;11.636;2023-09-08T02:02:15;5.50;;;5.00;;
9424;SDS011;17139;52.140;11.636;2023-09-08T02:04:42;5.80;;;5.50;;
9424;SDS011;17139;52.140;11.636;2023-09-08T02:07:09;6.18;;;5.68;;
9424;SDS011;17139;52.140;11.636;2023-09-08T02:09:37;5.30;;;5.00;;
9424;SDS011;17139;52.140;11.636;2023-09-08T02:12:04;5.32;;;5.07;;
9424;SDS011;17139;52.140;11.636;2023-09-08T02:14:33;6.18;;;5.53;;
9424;SDS011;17139;52.140;11.636;2023-09-08T02:17:00;5.22;;;5.03;;
9424;SDS011;17139;52.140;11.636;2023-09-08T02:19:28;6.35;;;5.85;;
9424;SDS011;17139;52.140;11.636;2023-09-08T02:21:55;5.63;;;5.22;;
9424;SDS011;17139;52.140;11.636;2023-09-08T02:24:22;6.97;;;6.57;;
9424;SDS011;17139;52.140;11.636;2023-09-08T02:26:49;8.93;;;5.72;;
9424;SDS011;17139;52.140;11.636;2023-09-08T02:29:16;6.50;;;6.00;;
9424;SDS011;17139;52.140;11.636;2023-09-08T02:31:44;5.88;;;5.45;;
9424;SDS011;17139;52.140;11.636;2023-09-08T02:34:11;8.40;;;5.80;;
9424;SDS011;17139;52.140;11.636;2023-09-08T02:36:38;6.00;;;5.60;;
9424;SDS011;17139;52.140;11.636;2023-09-08T02:39:05;7.03;;;6.45;;
9424;SDS011;17139;52.140;11.636;2023-09-08T02:41:33;5.80;;;5.50;;
9424;SDS011;17139;52.140;11.636;2023-09-08T02:44:00;6.97;;;6.57;;
9424;SDS011;17139;52.140;11.636;2023-09-08T02:46:28;6.07;;;5.57;;
9424;SDS011;17139;52.140;11.636;2023-09-08T02:48:56;7.05;;;6.55;;
9424;SDS011;17139;52.140;11.636;2023-09-08T02:51:23;6.18;;;5.88;;
9424;SDS011;17139;52.140;11.636;2023-09-08T02:53:50;10.15;;;5.40;;
9424;SDS011;17139;52.140;11.636;2023-09-08T02:56:17;6.03;;;5.63;;
9424;SDS011;17139;52.140;11.636;2023-09-08T02:58:44;5.82;;;5.53;;
9424;SDS011;17139;52.140;11.636;2023-09-08T03:01:12;6.40;;;5.80;;
9424;SDS011;17139;52.140;11.636;2023-09-08T03:03:41;5.93;;;5.50;;
9424;SDS011;17139;52.140;11.636;2023-09-08T03:06:10;6.40;;;6.10;;
9424;SDS011;17139;52.140;11.636;2023-09-08T03:08:37;7.00;;;6.40;;
9424;SDS011;17139;52.140;11.636;2023-09-08T03:11:04;6.22;;;5.68;;
9424;SDS011;17139;52.140;11.636;2023-09-08T03:13:32;6.15;;;5.78;;
9424;SDS011;17139;52.140;11.636;2023-09-08T03:16:03;6.38;;;6.07;;
9424;SDS011;17139;52.140;11.636;2023-09-08T03:18:30;5.55;;;5.15;;
9424;SDS011;17139;52.140;11.636;2023-09-08T03:20:58;5.70;;;5.40;;
9424;SDS011;17139;52.140;11.636;2023-09-08T03:23:28;13.48;;;6.50;;
9424;SDS011;17139;52.140;11.636;2023-09-08T03:25:55;5.65;;;5.35;;
9424;SDS011;17139;52.140;11.636;2023-09-08T03:28:22;6.25;;;5.75;;
9424;SDS011;17139;52.140;11.636;2023-09-08T03:30:49;6.10;;;5.70;;
9424;SDS011;17139;52.140;11.636;2023-09-08T03:33:16;7.50;;;5.97;;
9424;SDS011;17139;52.140;11.636;2023-09-08T03:35:43;8.15;;;6.03;;
9424;SDS011;17139;52.140;11.636;2023-09-08T03:38:10;5.95;;;5.65;;
9424;SDS011;17139;52.140;11.636;2023-09-08T03:40:38;7.82;;;7.07;;
9424;SDS011;17139;52.140;11.636;2023-09-08T03:43:05;6.20;;;5.63;;
9424;SDS011;17139;52.140;11.636;2023-09-08T03:45:32;8.27;;;6.43;;
9424;SDS011;17139;52.140;11.636;2023-09-08T03:47:59;6.57;;;5.97;;
9424;SDS011;17139;52.140;11.636;2023-09-08T03:50:26;6.32;;;5.93;;
9424;SDS011;17139;52.140;11.636;2023-09-08T03:52:53;8.27;;;5.78;;
9424;SDS011;17139;52.140;11.636;2023-09-08T03:55:21;6.50;;;6.00;;
9424;SDS011;17139;52.140;11.636;2023-09-08T03:57:49;6.05;;;5.70;;
9424;SDS011;17139;52.140;11.636;2023-09-08T04:00:16;7.50;;;7.00;;
9424;SDS011;17139;52.140;11.636;2023-09-08T04:02:46;6.80;;;6.40;;
9424;SDS011;17139;52.140;11.636;2023-09-08T04:05:14;8.38;;;7.68;;
9424;SDS011;17139;52.140;11.636;2023-09-08T04:07:41;7.30;;;6.65;;
9424;SDS011;17139;52.140;11.636;2023-09-08T04:10:08;8.30;;;7.68;;
9424;SDS011;17139;52.140;11.636;2023-09-08T04:12:35;6.45;;;5.97;;
9424;SDS011;17139;52.140;11.636;2023-09-08T04:15:04;9.00;;;7.75;;
9424;SDS011;17139;52.140;11.636;2023-09-08T04:17:31;6.93;;;6.32;;
9424;SDS011;17139;52.140;11.636;2023-09-08T04:19:58;6.68;;;6.18;;
9424;SDS011;17139;52.140;11.636;2023-09-08T04:22:26;8.00;;;7.05;;
9424;SDS011;17139;52.140;11.636;2023-09-08T04:24:53;7.05;;;6.65;;
9424;SDS011;17139;52.140;11.636;2023-09-08T04:27:21;8.50;;;7.68;;
9424;SDS011;17139;52.140;11.636;2023-09-08T04:29:48;6.43;;;6.10;;
9424;SDS011;17139;52.140;11.636;2023-09-08T04:32:16;7.13;;;6.45;;
9424;SDS011;17139;52.140;11.636;2023-09-08T04:34:43;6.28;;;5.88;;
9424;SDS011;17139;52.140;11.636;2023-09-08T04:37:10;8.10;;;7.50;;
9424;SDS011;17139;52.140;11.636;2023-09-08T04:39:37;9.10;;;8.40;;
9424;SDS011;17139;52.140;11.636;2023-09-08T04:42:05;7.32;;;6.93;;
9424;SDS011;17139;52.140;11.636;2023-09-08T04:44:32;9.82;;;7.05;;
9424;SDS011;17139;52.140;11.636;2023-09-08T04:46:59;8.57;;;7.73;;
9424;SDS011;17139;52.140;11.636;2023-09-08T04:49:27;7.47;;;7.07;;
9424;SDS011;17139;52.140;11.636;2023-09-08T04:51:54;7.00;;;6.50;;
9424;SDS011;17139;52.140;11.636;2023-09-08T04:54:21;7.60;;;7.03;;
9424;SDS011;17139;52.140;11.636;2023-09-08T04:56:51;7.65;;;7.03;;
9424;SDS011;17139;52.140;11.636;2023-09-08T04:59:19;7.80;;;7.25;;
9424;SDS011;17139;52.140;11.636;2023-09-08T05:01:47;8.68;;;6.90;;
9424;SDS011;17139;52.140;11.636;2023-09-08T05:04:15;7.53;;;7.03;;
9424;SDS011;17139;52.140;11.636;2023-09-08T05:06:44;9.52;;;8.75;;
9424;SDS011;17139;52.140;11.636;2023-09-08T05:09:12;7.80;;;7.10;;
9424;SDS011;17139;52.140;11.636;2023-09-08T05:11:39;9.35;;;8.32;;
9424;SDS011;17139;52.140;11.636;2023-09-08T05:14:06;7.97;;;6.97;;
9424;SDS011;17139;52.140;11.636;2023-09-08T05:16:34;7.88;;;7.32;;
9424;SDS011;17139;52.140;11.636;2023-09-08T05:19:10;7.55;;;7.03;;
9424;SDS011;17139;52.140;11.636;2023-09-08T05:21:38;7.75;;;7.35;;
9424;SDS011;17139;52.140;11.636;2023-09-08T05:24:06;7.60;;;6.82;;
9424;SDS011;17139;52.140;11.636;2023-09-08T05:26:34;7.88;;;7.30;;
9424;SDS011;17139;52.140;11.636;2023-09-08T05:29:02;7.15;;;6.75;;
9424;SDS011;17139;52.140;11.636;2023-09-08T05:31:29;8.77;;;8.05;;
9424;SDS011;17139;52.140;11.636;2023-09-08T05:33:56;7.03;;;6.53;;
9424;SDS011;17139;52.140;11.636;2023-09-08T05:36:23;8.45;;;7.10;;
9424;SDS011;17139;52.140;11.636;2023-09-08T05:38:50;7.45;;;6.97;;
9424;SDS011;17139;52.140;11.636;2023-09-08T05:41:19;7.80;;;7.20;;
9424;SDS011;17139;52.140;11.636;2023-09-08T05:43:46;7.82;;;7.32;;
9424;SDS011;17139;52.140;11.636;2023-09-08T05:46:13;8.13;;;7.53;;
9424;SDS011;17139;52.140;11.636;2023-09-08T05:48:40;8.13;;;7.63;;
9424;SDS011;17139;52.140;11.636;2023-09-08T05:51:07;9.85;;;9.07;;
9424;SDS011;17139;52.140;11.636;2023-09-08T05:53:34;7.78;;;7.07;;
9424;SDS011;17139;52.140;11.636;2023-09-08T05:56:04;9.32;;;8.60;;
9424;SDS011;17139;52.140;11.636;2023-09-08T05:58:32;8.05;;;7.35;;
9424;SDS011;17139;52.140;11.636;2023-09-08T06:01:00;7.75;;;7.32;;
9424;SDS011;17139;52.140;11.636;2023-09-08T06:03:27;8.57;;;8.10;;
9424;SDS011;17139;52.140;11.636;2023-09-08T06:05:55;7.90;;;7.43;;
9424;SDS011;17139;52.140;11.636;2023-09-08T06:08:22;8.13;;;7.50;;
9424;SDS011;17139;52.140;11.636;2023-09-08T06:10:49;6.78;;;6.47;;
9424;SDS011;17139;52.140;11.636;2023-09-08T06:13:16;9.88;;;8.93;;
9424;SDS011;17139;52.140;11.636;2023-09-08T06:15:45;11.50;;;8.27;;
9424;SDS011;17139;52.140;11.636;2023-09-08T06:18:12;9.98;;;9.18;;
9424;SDS011;17139;52.140;11.636;2023-09-08T06:20:43;9.15;;;8.23;;
9424;SDS011;17139;52.140;11.636;2023-09-08T06:23:11;8.77;;;8.10;;
9424;SDS011;17139;52.140;11.636;2023-09-08T06:25:38;8.20;;;7.57;;
9424;SDS011;17139;52.140;11.636;2023-09-08T06:28:05;7.82;;;7.32;;
9424;SDS011;17139;52.140;11.636;2023-09-08T06:30:32;8.10;;;7.60;;
9424;SDS011;17139;52.140;11.636;2023-09-08T06:33:01;8.10;;;7.40;;
9424;SDS011;17139;52.140;11.636;2023-09-08T06:35:28;8.15;;;7.45;;
9424;SDS011;17139;52.140;11.636;2023-09-08T06:37:56;9.55;;;8.80;;
9424;SDS011;17139;52.140;11.636;2023-09-08T06:40:23;8.43;;;7.68;;
9424;SDS011;17139;52.140;11.636;2023-09-08T06:42:50;9.38;;;8.57;;
9424;SDS011;17139;52.140;11.636;2023-09-08T06:45:17;7.95;;;7.40;;
9424;SDS011;17139;52.140;11.636;2023-09-08T06:47:44;7.45;;;7.05;;
9424;SDS011;17139;52.140;11.636;2023-09-08T06:50:12;8.18;;;7.40;;
9424;SDS011;17139;52.140;11.636;2023-09-08T06:52:39;8.02;;;7.43;;
9424;SDS011;17139;52.140;11.636;2023-09-08T06:55:07;8.88;;;7.97;;
9424;SDS011;17139;52.140;11.636;2023-09-08T06:57:34;7.15;;;6.82;;
9424;SDS011;17139;52.140;11.636;2023-09-08T07:00:02;7.57;;;7.05;;
9424;SDS011;17139;52.140;11.636;2023-09-08T07:02:32;8.48;;;7.97;;
9424;SDS011;17139;52.140;11.636;2023-09-08T07:04:59;9.05;;;8.20;;
9424;SDS011;17139;52.140;11.636;2023-09-08T07:07:33;8.77;;;7.95;;
9424;SDS011;17139;52.140;11.636;2023-09-08T07:10:00;8.27;;;7.57;;
9424;SDS011;17139;52.140;11.636;2023-09-08T07:12:27;8.38;;;7.60;;
9424;SDS011;17139;52.140;11.636;2023-09-08T07:14:54;7.65;;;7.05;;
9424;SDS011;17139;52.140;11.636;2023-09-08T07:17:21;8.52;;;7.32;;
9424;SDS011;17139;52.140;11.636;2023-09-08T07:19:48;7.45;;;6.95;;
9424;SDS011;17139;52.140;11.636;2023-09-08T07:22:16;10.02;;;6.93;;
9424;SDS011;17139;52.140;11.636;2023-09-08T07:24:44;7.40;;;6.97;;
9424;SDS011;17139;52.140;11.636;2023-09-08T07:27:11;8.45;;;8.05;;
9424;SDS011;17139;52.140;11.636;2023-09-08T07:29:39;7.65;;;7.15;;
9424;SDS011;17139;52.140;11.636;2023-09-08T07:32:06;9.60;;;9.00;;
9424;SDS011;17139;52.140;11.636;2023-09-08T07:34:33;7.68;;;7.28;;
9424;SDS011;17139;52.140;11.636;2023-09-08T07:37:00;7.47;;;6.97;;
9424;SDS011;17139;52.140;11.636;2023-09-08T07:39:28;8.50;;;7.18;;
9424;SDS011;17139;52.140;11.636;2023-09-08T07:41:56;6.85;;;6.47;;
9424;SDS011;17139;52.140;11.636;2023-09-08T07:44:23;8.00;;;7.28;;
9424;SDS011;17139;52.140;11.636;2023-09-08T07:46:51;7.18;;;6.78;;
9424;SDS011;17139;52.140;11.636;2023-09-08T07:49:18;8.00;;;7.20;;
9424;SDS011;17139;52.140;11.636;2023-09-08T07:51:45;6.70;;;6.40;;
9424;SDS011;17139;52.140;11.636;2023-09-08T07:54:12;7.13;;;6.60;;
9424;SDS011;17139;52.140;11.636;2023-09-08T07:56:39;6.60;;;6.18;;
9424;SDS011;17139;52.140;11.636;2023-09-08T07:59:08;7.45;;;7.10;;
9424;SDS011;17139;52.140;11.636;2023-09-08T08:01:35;6.82;;;6.43;;
9424;SDS011;17139;52.140;11.636;2023-09-08T08:04:02;7.15;;;6.57;;
9424;SDS011;17139;52.140;11.636;2023-09-08T08:06:29;6.65;;;6.20;;
9424;SDS011;17139;52.140;11.636;2023-09-08T08:08:56;7.18;;;6.53;;
9424;SDS011;17139;52.140;11.636;2023-09-08T08:11:23;7.85;;;7.25;;
9424;SDS011;17139;52.140;11.636;2023-09-08T08:13:51;7.50;;;6.95;;
9424;SDS011;17139;52.140;11.636;2023-09-08T08:16:20;5.93;;;5.53;;
9424;SDS011;17139;52.140;11.636;2023-09-08T08:18:47;5.95;;;5.65;;
9424;SDS011;17139;52.140;11.636;2023-09-08T08:21:14;6.22;;;5.90;;
9424;SDS011;17139;52.140;11.636;2023-09-08T08:23:41;9.30;;;6.47;;
9424;SDS011;17139;52.140;11.636;2023-09-08T08:26:08;7.25;;;6.65;;
9424;SDS011;17139;52.140;11.636;2023-09-08T08:28:35;7.45;;;6.47;;
9424;SDS011;17139;52.140;11.636;2023-09-08T08:31:02;7.15;;;6.70;;
9424;SDS011;17139;52.140;11.636;2023-09-08T08:33:31;6.13;;;5.68;;
9424;SDS011;17139;52.140;11.636;2023-09-08T08:35:58;6.20;;;5.90;;
9424;SDS011;17139;52.140;11.636;2023-09-08T08:38:25;6.93;;;6.50;;
9424;SDS011;17139;52.140;11.636;2023-09-08T08:40:52;6.22;;;5.93;;
9424;SDS011;17139;52.140;11.636;2023-09-08T08:43:19;7.10;;;6.50;;
9424;SDS011;17139;52.140;11.636;2023-09-08T08:45:50;6.20;;;5.88;;
9424;SDS011;17139;52.140;11.636;2023-09-08T08:48:19;7.00;;;6.50;;
9424;SDS011;17139;52.140;11.636;2023-09-08T08:50:51;7.55;;;6.40;;
9424;SDS011;17139;52.140;11.636;2023-09-08T08:53:19;6.22;;;5.45;;
9424;SDS011;17139;52.140;11.636;2023-09-08T08:55:47;6.45;;;6.05;;
9424;SDS011;17139;52.140;11.636;2023-09-08T08:58:17;6.25;;;5.82;;
9424;SDS011;17139;52.140;11.636;2023-09-08T09:00:50;6.60;;;6.10;;
9424;SDS011;17139;52.140;11.636;2023-09-08T09:03:18;8.43;;;7.77;;
9424;SDS011;17139;52.140;11.636;2023-09-08T09:05:46;7.18;;;6.53;;
9424;SDS011;17139;52.140;11.636;2023-09-08T09:08:15;7.68;;;6.68;;
9424;SDS011;17139;52.140;11.636;2023-09-08T09:10:43;8.82;;;8.00;;
9424;SDS011;17139;52.140;11.636;2023-09-08T09:13:10;6.93;;;6.43;;
9424;SDS011;17139;52.140;11.636;2023-09-08T09:15:37;4.90;;;4.65;;
9424;SDS011;17139;52.140;11.636;2023-09-08T09:18:05;12.55;;;6.13;;
9424;SDS011;17139;52.140;11.636;2023-09-08T09:20:33;5.82;;;5.00;;
9424;SDS011;17139;52.140;11.636;2023-09-08T09:23:01;4.90;;;4.53;;
9424;SDS011;17139;52.140;11.636;2023-09-08T09:25:30;6.00;;;5.50;;
9424;SDS011;17139;52.140;11.636;2023-09-08T09:27:58;5.47;;;5.10;;
9424;SDS011;17139;52.140;11.636;2023-09-08T09:30:26;5.40;;;5.07;;
9424;SDS011;17139;52.140;11.636;2023-09-08T09:33:01;5.60;;;5.13;;
9424;SDS011;17139;52.140;11.636;2023-09-08T09:38:16;6.38;;;4.32;;
9424;SDS011;17139;52.140;11.636;2023-09-08T09:40:46;6.28;;;4.70;;
9424;SDS011;17139;52.140;11.636;2023-09-08T09:43:13;4.88;;;4.68;;
9424;SDS011;17139;52.140;11.636;2023-09-08T09:45:42;4.45;;;4.25;;
9424;SDS011;17139;52.140;11.636;2023-09-08T09:48:09;4.32;;;4.13;;
9424;SDS011;17139;52.140;11.636;2023-09-08T09:50:37;5.15;;;4.80;;
9424;SDS011;17139;52.140;11.636;2023-09-08T09:53:08;4.95;;;4.65;;
9424;SDS011;17139;52.140;11.636;2023-09-08T09:55:36;4.47;;;4.13;;
9424;SDS011;17139;52.140;11.636;2023-09-08T09:58:09;5.00;;;4.70;;
9424;SDS011;17139;52.140;11.636;2023-09-08T10:00:37;4.18;;;3.97;;
9424;SDS011;17139;52.140;11.636;2023-09-08T10:03:05;5.30;;;4.25;;
9424;SDS011;17139;52.140;11.636;2023-09-08T10:05:33;4.35;;;4.05;;
9424;SDS011;17139;52.140;11.636;2023-09-08T10:08:00;5.20;;;4.90;;
9424;SDS011;17139;52.140;11.636;2023-09-08T10:10:27;4.28;;;4.05;;
9424;SDS011;17139;52.140;11.636;2023-09-08T10:13:02;4.03;;;3.78;;
9424;SDS011;17139;52.140;11.636;2023-09-08T10:15:33;4.40;;;4.20;;
9424;SDS011;17139;52.140;11.636;2023-09-08T10:18:01;5.10;;;4.70;;
9424;SDS011;17139;52.140;11.636;2023-09-08T10:20:30;3.72;;;3.60;;
9424;SDS011;17139;52.140;11.636;2023-09-08T10:23:01;4.05;;;3.75;;
9424;SDS011;17139;52.140;11.636;2023-09-08T10:25:35;4.28;;;4.07;;
9424;SDS011;17139;52.140;11.636;2023-09-08T10:28:08;4.53;;;4.13;;
9424;SDS011;17139;52.140;11.636;2023-09-08T10:30:37;4.03;;;3.85;;
9424;SDS011;17139;52.140;11.636;2023-09-08T10:33:05;8.13;;;4.05;;
9424;SDS011;17139;52.140;11.636;2023-09-08T10:35:33;3.92;;;3.63;;
9424;SDS011;17139;52.140;11.636;2023-09-08T10:38:21;4.85;;;3.78;;
9424;SDS011;17139;52.140;11.636;2023-09-08T10:40:49;4.50;;;4.20;;
9424;SDS011;17139;52.140;11.636;2023-09-08T10:43:16;5.35;;;3.90;;
9424;SDS011;17139;52.140;11.636;2023-09-08T10:45:46;4.18;;;3.83;;
9424;SDS011;17139;52.140;11.636;2023-09-08T10:48:13;4.22;;;4.03;;
9424;SDS011;17139;52.140;11.636;2023-09-08T10:50:41;4.43;;;4.15;;
9424;SDS011;17139;52.140;11.636;2023-09-08T10:53:13;3.65;;;3.45;;
9424;SDS011;17139;52.140;11.636;2023-09-08T10:55:41;4.30;;;4.00;;
9424;SDS011;17139;52.140;11.636;2023-09-08T10:58:30;4.32;;;3.92;;
9424;SDS011;17139;52.140;11.636;2023-09-08T11:01:00;3.80;;;3.47;;
9424;SDS011;17139;52.140;11.636;2023-09-08T11:03:42;4.43;;;4.05;;
9424;SDS011;17139;52.140;11.636;2023-09-08T11:06:12;4.72;;;4.35;;
9424;SDS011;17139;52.140;11.636;2023-09-08T11:08:42;3.95;;;3.75;;
9424;SDS011;17139;52.140;11.636;2023-09-08T11:11:10;4.55;;;4.25;;
9424;SDS011;17139;52.140;11.636;2023-09-08T11:13:38;3.80;;;3.63;;
9424;SDS011;17139;52.140;11.636;2023-09-08T11:16:07;3.90;;;3.70;;
9424;SDS011;17139;52.140;11.636;2023-09-08T11:18:34;4.40;;;4.10;;
9424;SDS011;17139;52.140;11.636;2023-09-08T11:21:02;4.63;;;4.32;;
9424;SDS011;17139;52.140;11.636;2023-09-08T11:23:33;3.70;;;3.58;;
9424;SDS011;17139;52.140;11.636;2023-09-08T11:26:00;4.50;;;4.03;;
9424;SDS011;17139;52.140;11.636;2023-09-08T11:28:28;4.28;;;3.97;;
9424;SDS011;17139;52.140;11.636;2023-09-08T11:30:55;4.15;;;3.95;;
9424;SDS011;17139;52.140;11.636;2023-09-08T11:33:23;3.72;;;3.63;;
9424;SDS011;17139;52.140;11.636;2023-09-08T11:35:51;4.32;;;4.00;;
9424;SDS011;17139;52.140;11.636;2023-09-08T11:38:19;3.90;;;3.70;;
9424;SDS011;17139;52.140;11.636;2023-09-08T11:40:50;3.80;;;3.60;;
9424;SDS011;17139;52.140;11.636;2023-09-08T11:43:18;4.13;;;3.90;;
9424;SDS011;17139;52.140;11.636;2023-09-08T11:45:45;3.67;;;3.47;;
9424;SDS011;17139;52.140;11.636;2023-09-08T11:48:13;3.78;;;3.58;;
9424;SDS011;17139;52.140;11.636;2023-09-08T11:50:42;3.85;;;3.65;;
9424;SDS011;17139;52.140;11.636;2023-09-08T11:53:10;4.18;;;3.88;;
9424;SDS011;17139;52.140;11.636;2023-09-08T11:55:37;3.85;;;3.50;;
9424;SDS011;17139;52.140;11.636;2023-09-08T11:58:04;4.03;;;3.75;;
9424;SDS011;17139;52.140;11.636;2023-09-08T12:00:32;3.63;;;3.42;;
9424;SDS011;17139;52.140;11.636;2023-09-08T12:03:09;4.10;;;3.90;;
9424;SDS011;17139;52.140;11.636;2023-09-08T12:05:36;3.50;;;3.40;;
9424;SDS011;17139;52.140;11.636;2023-09-08T12:08:05;3.45;;;3.25;;
9424;SDS011;17139;52.140;11.636;2023-09-08T12:10:37;4.00;;;3.60;;
9424;SDS011;17139;52.140;11.636;2023-09-08T12:13:05;4.20;;;3.80;;
9424;SDS011;17139;52.140;11.636;2023-09-08T12:15:34;3.65;;;3.45;;
9424;SDS011;17139;52.140;11.636;2023-09-08T12:18:02;6.22;;;3.65;;
9424;SDS011;17139;52.140;11.636;2023-09-08T12:20:31;4.30;;;4.00;;
9424;SDS011;17139;52.140;11.636;2023-09-08T12:22:59;4.20;;;3.90;;
9424;SDS011;17139;52.140;11.636;2023-09-08T12:25:30;3.40;;;3.20;;
9424;SDS011;17139;52.140;11.636;2023-09-08T12:27:59;3.50;;;3.40;;
9424;SDS011;17139;52.140;11.636;2023-09-08T12:30:27;4.30;;;3.50;;
9424;SDS011;17139;52.140;11.636;2023-09-08T12:32:57;4.20;;;4.00;;
9424;SDS011;17139;52.140;11.636;2023-09-08T12:35:25;4.03;;;3.83;;
9424;SDS011;17139;52.140;11.636;2023-09-08T12:37:59;4.22;;;3.83;;
9424;SDS011;17139;52.140;11.636;2023-09-08T12:40:33;3.63;;;3.53;;
9424;SDS011;17139;52.140;11.636;2023-09-08T12:43:01;3.28;;;3.08;;
9424;SDS011;17139;52.140;11.636;2023-09-08T12:45:28;3.63;;;3.42;;
9424;SDS011;17139;52.140;11.636;2023-09-08T12:47:57;3.90;;;3.60;;
9424;SDS011;17139;52.140;11.636;2023-09-08T12:50:24;4.38;;;3.67;;
9424;SDS011;17139;52.140;11.636;2023-09-08T12:52:52;4.03;;;3.83;;
9424;SDS011;17139;52.140;11.636;2023-09-08T12:55:19;3.63;;;3.40;;
9424;SDS011;17139;52.140;11.636;2023-09-08T12:57:48;3.42;;;3.33;;
9424;SDS011;17139;52.140;11.636;2023-09-08T13:00:17;4.80;;;3.78;;
9424;SDS011;17139;52.140;11.636;2023-09-08T13:02:44;4.72;;;4.28;;
9424;SDS011;17139;52.140;11.636;2023-09-08T13:05:11;4.10;;;3.90;;
9424;SDS011;17139;52.140;11.636;2023-09-08T13:07:39;4.00;;;3.63;;
9424;SDS011;17139;52.140;11.636;2023-09-08T13:10:06;3.70;;;3.50;;
9424;SDS011;17139;52.140;11.636;2023-09-08T13:12:34;6.80;;;4.03;;
9424;SDS011;17139;52.140;11.636;2023-09-08T13:15:03;6.15;;;3.97;;
9424;SDS011;17139;52.140;11.636;2023-09-08T13:17:30;4.18;;;3.88;;
9424;SDS011;17139;52.140;11.636;2023-09-08T13:19:57;4.20;;;3.90;;
9424;SDS011;17139;52.140;11.636;2023-09-08T13:22:24;4.20;;;3.80;;
9424;SDS011;17139;52.140;11.636;2023-09-08T13:24:51;3.88;;;3.58;;
9424;SDS011;17139;52.140;11.636;2023-09-08T13:27:18;3.67;;;3.47;;
9424;SDS011;17139;52.140;11.636;2023-09-08T13:29:45;3.70;;;3.60;;
9424;SDS011;17139;52.140;11.636;2023-09-08T13:32:14;3.72;;;3.55;;
9424;SDS011;17139;52.140;11.636;2023-09-08T13:34:42;4.10;;;3.90;;
9424;SDS011;17139;52.140;11.636;2023-09-08T13:37:09;3.92;;;3.65;;
9424;SDS011;17139;52.140;11.636;2023-09-08T13:39:36;4.05;;;3.70;;
9424;SDS011;17139;52.140;11.636;2023-09-08T13:42:04;4.28;;;4.00;;
9424;SDS011;17139;52.140;11.636;2023-09-08T13:44:31;4.13;;;3.60;;
9424;SDS011;17139;52.140;11.636;2023-09-08T13:46:58;4.40;;;4.00;;
9424;SDS011;17139;52.140;11.636;2023-09-08T13:49:26;6.05;;;4.05;;
9424;SDS011;17139;52.140;11.636;2023-09-08T13:51:53;3.42;;;3.30;;
9424;SDS011;17139;52.140;11.636;2023-09-08T13:54:20;8.20;;;3.50;;
9424;SDS011;17139;52.140;11.636;2023-09-08T13:56:56;4.15;;;3.85;;
9424;SDS011;17139;52.140;11.636;2023-09-08T13:59:25;3.85;;;3.65;;
9424;SDS011;17139;52.140;11.636;2023-09-08T14:01:53;4.47;;;3.88;;
9424;SDS011;17139;52.140;11.636;2023-09-08T14:04:21;4.53;;;3.50;;
9424;SDS011;17139;52.140;11.636;2023-09-08T14:06:49;4.03;;;3.73;;
9424;SDS011;17139;52.140;11.636;2023-09-08T14:09:16;4.18;;;3.80;;
9424;SDS011;17139;52.140;11.636;2023-09-08T14:11:43;4.00;;;3.42;;
9424;SDS011;17139;52.140;11.636;2023-09-08T14:14:10;3.90;;;3.60;;
9424;SDS011;17139;52.140;11.636;2023-09-08T14:16:38;3.78;;;3.50;;
9424;SDS011;17139;52.140;11.636;2023-09-08T14:19:04;3.70;;;3.50;;
9424;SDS011;17139;52.140;11.636;2023-09-08T14:21:31;4.00;;;3.70;;
9424;SDS011;17139;52.140;11.636;2023-09-08T14:24:00;4.15;;;3.75;;
9424;SDS011;17139;52.140;11.636;2023-09-08T14:26:27;3.30;;;3.20;;
9424;SDS011;17139;52.140;11.636;2023-09-08T14:28:54;3.97;;;3.70;;
9424;SDS011;17139;52.140;11.636;2023-09-08T14:31:21;4.05;;;3.67;;
9424;SDS011;17139;52.140;11.636;2023-09-08T14:33:48;3.50;;;3.30;;
9424;SDS011;17139;52.140;11.636;2023-09-08T14:36:16;3.70;;;3.50;;
9424;SDS011;17139;52.140;11.636;2023-09-08T14:38:44;3.33;;;3.13;;
9424;SDS011;17139;52.140;11.636;2023-09-08T14:41:13;3.67;;;3.50;;
9424;SDS011;17139;52.140;11.636;2023-09-08T14:43:40;3.45;;;3.25;;
9424;SDS011;17139;52.140;11.636;2023-09-08T14:46:07;3.90;;;3.58;;
9424;SDS011;17139;52.140;11.636;2023-09-08T14:48:34;3.70;;;3.50;;
9424;SDS011;17139;52.140;11.636;2023-09-08T14:51:01;3.88;;;3.60;;
9424;SDS011;17139;52.140;11.636;2023-09-08T14:53:29;3.40;;;3.20;;
9424;SDS011;17139;52.140;11.636;2023-09-08T14:55:56;3.72;;;3.53;;